TUR1265 EDDF-LTFM
Flight info
| Callsign | TUR1265 |
|---|---|
| Flight time | 2h 24m |
| Altitude | 31000 |
| Route | CINDY8S/18 CINDY Z74 HAREM DCT ASLEP DCT TAKUT DCT DINKU L603 BESNI L605 MIQ DCT ALUTU DCT BIBAG L605 ESEGA DCT VELOM DCT GOTAR DCT BABIT DCT ESIRI DCT ETIDA T390 RILEX |
| Aircraft | B77W/H-SDE1E2E3FGHIJ2J3J4J5M1RWXY/LB1D1 |
Departure
| Time | 2026-05-03 20:29 |
|---|---|
| Airport | Frankfurt Main Airport (EDDF) |
Arrival
| Time | 2026-05-03 22:53 |
|---|---|
| Airport | İstanbul Airport (LTFM) |
| Time | Latitude | Longitude | Altitude | Speed | Heading |
|---|---|---|---|---|---|
| 2026-05-03 20:15 | 50.04785 | 8.57870 | 369 ft | 0 kts | 237° |
| 2026-05-03 20:16 | 50.04783 | 8.57868 | 369 ft | 0 kts | 237° |
| 2026-05-03 20:17 | 50.04756 | 8.57839 | 368 ft | 9 kts | 194° |
| 2026-05-03 20:17 | 50.04693 | 8.57795 | 369 ft | 11 kts | 228° |
| 2026-05-03 20:17 | 50.04656 | 8.57681 | 370 ft | 13 kts | 250° |
| 2026-05-03 20:18 | 50.04622 | 8.57537 | 364 ft | 15 kts | 249° |
| 2026-05-03 20:18 | 50.04581 | 8.57366 | 369 ft | 18 kts | 250° |
| 2026-05-03 20:18 | 50.04538 | 8.57188 | 369 ft | 18 kts | 249° |
| 2026-05-03 20:18 | 50.04496 | 8.57010 | 365 ft | 18 kts | 250° |
| 2026-05-03 20:19 | 50.04454 | 8.56832 | 371 ft | 18 kts | 250° |
| 2026-05-03 20:19 | 50.04411 | 8.56654 | 368 ft | 18 kts | 249° |
| 2026-05-03 20:19 | 50.04369 | 8.56476 | 369 ft | 18 kts | 249° |
| 2026-05-03 20:19 | 50.04329 | 8.56312 | 362 ft | 13 kts | 249° |
| 2026-05-03 20:20 | 50.04299 | 8.56188 | 367 ft | 12 kts | 249° |
| 2026-05-03 20:20 | 50.04270 | 8.56064 | 364 ft | 12 kts | 250° |
| 2026-05-03 20:20 | 50.04241 | 8.55940 | 367 ft | 12 kts | 250° |
| 2026-05-03 20:20 | 50.04212 | 8.55815 | 362 ft | 13 kts | 250° |
| 2026-05-03 20:21 | 50.04179 | 8.55685 | 366 ft | 13 kts | 249° |
| 2026-05-03 20:21 | 50.04148 | 8.55555 | 362 ft | 13 kts | 250° |
| 2026-05-03 20:21 | 50.04126 | 8.55464 | 361 ft | 13 kts | 250° |
| 2026-05-03 20:21 | 50.04083 | 8.55286 | 366 ft | 13 kts | 249° |
| 2026-05-03 20:22 | 50.04051 | 8.55152 | 365 ft | 13 kts | 250° |
| 2026-05-03 20:22 | 50.04019 | 8.55017 | 364 ft | 13 kts | 249° |
| 2026-05-03 20:22 | 50.03987 | 8.54882 | 361 ft | 14 kts | 249° |
| 2026-05-03 20:22 | 50.03952 | 8.54736 | 363 ft | 15 kts | 249° |
| 2026-05-03 20:23 | 50.03916 | 8.54588 | 356 ft | 15 kts | 249° |
| 2026-05-03 20:23 | 50.03891 | 8.54486 | 360 ft | 15 kts | 249° |
| 2026-05-03 20:23 | 50.03832 | 8.54311 | 361 ft | 14 kts | 235° |
| 2026-05-03 20:23 | 50.03801 | 8.54223 | 360 ft | 14 kts | 247° |
| 2026-05-03 20:24 | 50.03766 | 8.54082 | 353 ft | 14 kts | 249° |
| 2026-05-03 20:24 | 50.03732 | 8.53936 | 355 ft | 14 kts | 250° |
| 2026-05-03 20:24 | 50.03698 | 8.53791 | 355 ft | 14 kts | 250° |
| 2026-05-03 20:24 | 50.03662 | 8.53646 | 354 ft | 14 kts | 248° |
| 2026-05-03 20:25 | 50.03624 | 8.53501 | 351 ft | 14 kts | 248° |
| 2026-05-03 20:25 | 50.03590 | 8.53354 | 352 ft | 14 kts | 250° |
| 2026-05-03 20:25 | 50.03555 | 8.53207 | 347 ft | 15 kts | 250° |
| 2026-05-03 20:25 | 50.03520 | 8.53062 | 354 ft | 14 kts | 250° |
| 2026-05-03 20:26 | 50.03485 | 8.52919 | 351 ft | 14 kts | 247° |
| 2026-05-03 20:26 | 50.03446 | 8.52779 | 336 ft | 14 kts | 247° |
| 2026-05-03 20:26 | 50.03440 | 8.52756 | 338 ft | 0 kts | 249° |
| 2026-05-03 20:27 | 50.03440 | 8.52755 | 338 ft | 2 kts | 249° |
| 2026-05-03 20:27 | 50.03416 | 8.52644 | 339 ft | 13 kts | 258° |
| 2026-05-03 20:27 | 50.03391 | 8.52594 | 335 ft | 9 kts | 205° |
| 2026-05-03 20:28 | 50.03299 | 8.52587 | 340 ft | 26 kts | 180° |
| 2026-05-03 20:28 | 50.02845 | 8.52594 | 337 ft | 105 kts | 179° |
| 2026-05-03 20:28 | 50.01887 | 8.52606 | 339 ft | 170 kts | 181° |
| 2026-05-03 20:28 | 50.00588 | 8.52630 | 687 ft | 192 kts | 182° |
| 2026-05-03 20:29 | 49.99218 | 8.52592 | 1410 ft | 202 kts | 183° |
| 2026-05-03 20:29 | 49.97809 | 8.52562 | 2354 ft | 198 kts | 185° |
| 2026-05-03 20:29 | 49.96442 | 8.52608 | 3075 ft | 204 kts | 175° |
| 2026-05-03 20:29 | 49.95122 | 8.53693 | 3550 ft | 233 kts | 135° |
| 2026-05-03 20:30 | 49.94352 | 8.55981 | 4024 ft | 245 kts | 117° |
| 2026-05-03 20:30 | 49.93652 | 8.58409 | 3990 ft | 244 kts | 121° |
| 2026-05-03 20:30 | 49.93188 | 8.60956 | 3997 ft | 262 kts | 90° |
| 2026-05-03 20:30 | 49.93447 | 8.63919 | 4031 ft | 287 kts | 85° |
| 2026-05-03 20:31 | 49.93561 | 8.66996 | 3996 ft | 283 kts | 96° |
| 2026-05-03 20:31 | 49.93055 | 8.69872 | 3999 ft | 275 kts | 128° |
| 2026-05-03 20:31 | 49.91727 | 8.71888 | 4005 ft | 265 kts | 151° |
| 2026-05-03 20:31 | 49.90185 | 8.73526 | 4077 ft | 271 kts | 150° |
| 2026-05-03 20:32 | 49.88669 | 8.75252 | 4899 ft | 271 kts | 143° |
| 2026-05-03 20:32 | 49.87559 | 8.77652 | 5814 ft | 277 kts | 123° |
| 2026-05-03 20:32 | 49.86656 | 8.80311 | 6741 ft | 279 kts | 125° |
| 2026-05-03 20:32 | 49.85713 | 8.82987 | 7242 ft | 292 kts | 125° |
| 2026-05-03 20:33 | 49.84713 | 8.85763 | 7069 ft | 293 kts | 125° |
| 2026-05-03 20:33 | 49.83733 | 8.88486 | 6997 ft | 283 kts | 125° |
| 2026-05-03 20:33 | 49.82789 | 8.91099 | 6948 ft | 274 kts | 126° |
| 2026-05-03 20:33 | 49.81862 | 8.93655 | 6955 ft | 273 kts | 126° |
| 2026-05-03 20:34 | 49.80913 | 8.96253 | 7410 ft | 281 kts | 126° |
| 2026-05-03 20:34 | 49.79946 | 8.98904 | 8227 ft | 285 kts | 126° |
| 2026-05-03 20:34 | 49.78970 | 9.01587 | 9099 ft | 287 kts | 126° |
| 2026-05-03 20:34 | 49.77987 | 9.04285 | 9992 ft | 288 kts | 126° |
| 2026-05-03 20:35 | 49.76992 | 9.07004 | 10719 ft | 296 kts | 126° |
| 2026-05-03 20:35 | 49.76000 | 9.09921 | 11004 ft | 323 kts | 116° |
| 2026-05-03 20:35 | 49.75334 | 9.13464 | 11026 ft | 362 kts | 107° |
| 2026-05-03 20:35 | 49.74742 | 9.17410 | 11018 ft | 383 kts | 110° |
| 2026-05-03 20:36 | 49.73666 | 9.21097 | 10990 ft | 373 kts | 131° |
| 2026-05-03 20:36 | 49.71950 | 9.24071 | 11016 ft | 372 kts | 139° |
| 2026-05-03 20:36 | 49.70146 | 9.26963 | 10991 ft | 373 kts | 138° |
| 2026-05-03 20:36 | 49.68388 | 9.29900 | 10995 ft | 372 kts | 136° |
| 2026-05-03 20:37 | 49.66669 | 9.32874 | 11010 ft | 370 kts | 136° |
| 2026-05-03 20:37 | 49.64964 | 9.35857 | 10995 ft | 370 kts | 136° |
| 2026-05-03 20:37 | 49.63296 | 9.38879 | 10993 ft | 372 kts | 131° |
| 2026-05-03 20:37 | 49.61892 | 9.42257 | 11015 ft | 376 kts | 123° |
| 2026-05-03 20:38 | 49.60779 | 9.45920 | 11009 ft | 380 kts | 115° |
| 2026-05-03 20:38 | 49.59928 | 9.49795 | 11009 ft | 382 kts | 112° |
| 2026-05-03 20:38 | 49.59126 | 9.53651 | 11009 ft | 383 kts | 111° |
| 2026-05-03 20:38 | 49.58313 | 9.57572 | 11011 ft | 384 kts | 111° |
| 2026-05-03 20:39 | 49.57483 | 9.61534 | 11018 ft | 384 kts | 112° |
| 2026-05-03 20:39 | 49.56660 | 9.65403 | 11011 ft | 384 kts | 112° |
| 2026-05-03 20:39 | 49.55824 | 9.69310 | 11003 ft | 384 kts | 112° |
| 2026-05-03 20:39 | 49.54983 | 9.73214 | 11015 ft | 384 kts | 112° |
| 2026-05-03 20:40 | 49.54128 | 9.77167 | 11021 ft | 385 kts | 112° |
| 2026-05-03 20:40 | 49.53201 | 9.80958 | 11009 ft | 383 kts | 118° |
| 2026-05-03 20:40 | 49.51951 | 9.84551 | 11006 ft | 379 kts | 125° |
| 2026-05-03 20:40 | 49.50466 | 9.87864 | 11006 ft | 374 kts | 132° |
| 2026-05-03 20:41 | 49.48828 | 9.90962 | 11022 ft | 372 kts | 133° |
| 2026-05-03 20:41 | 49.47187 | 9.94031 | 11013 ft | 372 kts | 133° |
| 2026-05-03 20:41 | 49.45551 | 9.97096 | 11009 ft | 371 kts | 133° |
| 2026-05-03 20:41 | 49.43915 | 10.00172 | 11015 ft | 371 kts | 133° |
| 2026-05-03 20:42 | 49.42289 | 10.03240 | 11023 ft | 370 kts | 133° |
| 2026-05-03 20:42 | 49.40667 | 10.06304 | 11024 ft | 370 kts | 133° |
| 2026-05-03 20:42 | 49.39042 | 10.09376 | 11027 ft | 370 kts | 133° |
| 2026-05-03 20:42 | 49.37417 | 10.12442 | 11026 ft | 371 kts | 133° |
| 2026-05-03 20:43 | 49.35783 | 10.15515 | 11029 ft | 372 kts | 133° |
| 2026-05-03 20:43 | 49.34143 | 10.18588 | 11033 ft | 373 kts | 133° |
| 2026-05-03 20:43 | 49.32497 | 10.21669 | 11028 ft | 374 kts | 133° |
| 2026-05-03 20:43 | 49.30847 | 10.24761 | 10991 ft | 375 kts | 133° |
| 2026-05-03 20:44 | 49.29197 | 10.27850 | 10991 ft | 374 kts | 133° |
| 2026-05-03 20:44 | 49.27557 | 10.30918 | 11003 ft | 372 kts | 133° |
| 2026-05-03 20:44 | 49.25916 | 10.33976 | 11018 ft | 371 kts | 133° |
| 2026-05-03 20:44 | 49.24283 | 10.37018 | 11028 ft | 370 kts | 133° |
| 2026-05-03 20:45 | 49.22578 | 10.39956 | 11017 ft | 368 kts | 138° |
| 2026-05-03 20:45 | 49.20737 | 10.42685 | 11373 ft | 372 kts | 140° |
| 2026-05-03 20:45 | 49.18848 | 10.45431 | 12377 ft | 377 kts | 139° |
| 2026-05-03 20:45 | 49.16949 | 10.48223 | 13512 ft | 381 kts | 139° |
| 2026-05-03 20:46 | 49.15035 | 10.51061 | 14442 ft | 388 kts | 139° |
| 2026-05-03 20:46 | 49.13077 | 10.53964 | 15345 ft | 395 kts | 138° |
| 2026-05-03 20:46 | 49.11091 | 10.56917 | 16222 ft | 402 kts | 138° |
| 2026-05-03 20:46 | 49.09071 | 10.59921 | 17109 ft | 409 kts | 138° |
| 2026-05-03 20:47 | 49.07015 | 10.62964 | 17953 ft | 416 kts | 138° |
| 2026-05-03 20:47 | 49.04916 | 10.66062 | 18763 ft | 422 kts | 138° |
| 2026-05-03 20:47 | 49.02796 | 10.69182 | 19547 ft | 426 kts | 138° |
| 2026-05-03 20:47 | 49.00651 | 10.72328 | 20344 ft | 431 kts | 138° |
| 2026-05-03 20:48 | 48.98477 | 10.75513 | 21115 ft | 436 kts | 138° |
| 2026-05-03 20:48 | 48.96280 | 10.78731 | 21836 ft | 441 kts | 138° |
| 2026-05-03 20:48 | 48.94054 | 10.81986 | 22573 ft | 447 kts | 138° |
| 2026-05-03 20:48 | 48.91797 | 10.85281 | 23285 ft | 452 kts | 138° |
| 2026-05-03 20:49 | 48.89524 | 10.88610 | 23918 ft | 457 kts | 138° |
| 2026-05-03 20:49 | 48.87226 | 10.91978 | 24542 ft | 460 kts | 138° |
| 2026-05-03 20:49 | 48.84912 | 10.95370 | 25184 ft | 463 kts | 138° |
| 2026-05-03 20:49 | 48.82590 | 10.98768 | 25805 ft | 466 kts | 138° |
| 2026-05-03 20:50 | 48.80245 | 11.02192 | 26386 ft | 469 kts | 138° |
| 2026-05-03 20:50 | 48.77886 | 11.05633 | 26935 ft | 473 kts | 138° |
| 2026-05-03 20:50 | 48.75532 | 11.09061 | 27475 ft | 477 kts | 138° |
| 2026-05-03 20:50 | 48.73135 | 11.12542 | 28021 ft | 480 kts | 138° |
| 2026-05-03 20:51 | 48.70715 | 11.16054 | 28520 ft | 483 kts | 139° |
| 2026-05-03 20:51 | 48.68278 | 11.19592 | 29076 ft | 487 kts | 137° |
| 2026-05-03 20:51 | 48.66025 | 11.23441 | 29519 ft | 494 kts | 129° |
| 2026-05-03 20:51 | 48.64153 | 11.27840 | 29927 ft | 499 kts | 121° |
| 2026-05-03 20:52 | 48.62673 | 11.32609 | 30337 ft | 503 kts | 112° |
| 2026-05-03 20:52 | 48.61600 | 11.37633 | 30832 ft | 502 kts | 109° |
| 2026-05-03 20:52 | 48.60432 | 11.42617 | 30966 ft | 505 kts | 115° |
| 2026-05-03 20:53 | 48.57184 | 11.51935 | 30964 ft | 498 kts | 121° |
| 2026-05-03 20:53 | 48.53775 | 11.61024 | 31019 ft | 501 kts | 121° |
| 2026-05-03 20:53 | 48.52065 | 11.65622 | 31413 ft | 501 kts | 121° |
| 2026-05-03 20:54 | 48.50374 | 11.70197 | 31929 ft | 499 kts | 121° |
| 2026-05-03 20:54 | 48.45329 | 11.83895 | 32002 ft | 495 kts | 121° |
| 2026-05-03 20:55 | 48.41980 | 11.92958 | 32004 ft | 496 kts | 121° |
| 2026-05-03 20:55 | 48.38613 | 12.02033 | 31996 ft | 497 kts | 121° |
| 2026-05-03 20:56 | 48.35231 | 12.11114 | 31981 ft | 497 kts | 121° |
| 2026-05-03 20:56 | 48.31847 | 12.20171 | 31976 ft | 497 kts | 121° |
| 2026-05-03 20:57 | 48.28451 | 12.29226 | 31954 ft | 497 kts | 121° |
| 2026-05-03 20:57 | 48.25053 | 12.38258 | 31945 ft | 497 kts | 121° |
| 2026-05-03 20:58 | 48.21644 | 12.47283 | 31937 ft | 497 kts | 121° |
| 2026-05-03 20:58 | 48.18249 | 12.56250 | 31630 ft | 493 kts | 121° |
| 2026-05-03 20:59 | 48.16544 | 12.60737 | 31226 ft | 496 kts | 121° |
| 2026-05-03 20:59 | 48.14856 | 12.65174 | 30958 ft | 498 kts | 121° |
| 2026-05-03 20:59 | 48.11397 | 12.74240 | 30925 ft | 498 kts | 121° |
| 2026-05-03 21:00 | 48.09121 | 12.80191 | 30931 ft | 498 kts | 121° |
| 2026-05-03 21:00 | 48.04529 | 12.92156 | 30934 ft | 498 kts | 121° |
| 2026-05-03 21:01 | 48.01075 | 13.01124 | 30961 ft | 498 kts | 121° |
| 2026-05-03 21:01 | 47.97611 | 13.10086 | 30965 ft | 498 kts | 121° |
| 2026-05-03 21:02 | 47.94145 | 13.19022 | 30948 ft | 498 kts | 121° |
| 2026-05-03 21:02 | 47.90668 | 13.27956 | 30940 ft | 498 kts | 121° |
| 2026-05-03 21:03 | 47.87188 | 13.36864 | 30959 ft | 497 kts | 121° |
| 2026-05-03 21:03 | 47.83706 | 13.45752 | 30965 ft | 497 kts | 121° |
| 2026-05-03 21:04 | 47.80213 | 13.54640 | 30958 ft | 498 kts | 121° |
| 2026-05-03 21:04 | 47.76692 | 13.63566 | 31256 ft | 503 kts | 121° |
| 2026-05-03 21:05 | 47.74924 | 13.68036 | 31764 ft | 501 kts | 121° |
| 2026-05-03 21:05 | 47.73162 | 13.72490 | 32002 ft | 499 kts | 121° |
| 2026-05-03 21:05 | 47.69651 | 13.81334 | 31989 ft | 497 kts | 121° |
| 2026-05-03 21:06 | 47.66126 | 13.90184 | 31995 ft | 499 kts | 121° |
| 2026-05-03 21:06 | 47.62584 | 13.99044 | 32008 ft | 500 kts | 121° |
| 2026-05-03 21:07 | 47.59038 | 14.07891 | 32009 ft | 500 kts | 121° |
| 2026-05-03 21:07 | 47.55502 | 14.16682 | 32028 ft | 499 kts | 121° |
| 2026-05-03 21:08 | 47.51941 | 14.25506 | 32038 ft | 499 kts | 121° |
| 2026-05-03 21:08 | 47.48369 | 14.34330 | 32131 ft | 503 kts | 121° |
| 2026-05-03 21:09 | 47.46564 | 14.38776 | 32524 ft | 503 kts | 121° |
| 2026-05-03 21:09 | 47.44768 | 14.43195 | 33000 ft | 501 kts | 121° |
| 2026-05-03 21:09 | 47.41187 | 14.51982 | 33088 ft | 498 kts | 121° |
| 2026-05-03 21:10 | 47.37612 | 14.60728 | 33097 ft | 499 kts | 121° |
| 2026-05-03 21:10 | 47.34627 | 14.68007 | 33101 ft | 499 kts | 121° |
| 2026-05-03 21:11 | 47.31034 | 14.76743 | 33089 ft | 499 kts | 121° |
| 2026-05-03 21:11 | 47.27407 | 14.85536 | 33105 ft | 498 kts | 121° |
| 2026-05-03 21:12 | 47.23801 | 14.94247 | 33103 ft | 499 kts | 121° |
| 2026-05-03 21:12 | 47.20182 | 15.02965 | 33099 ft | 499 kts | 120° |
| 2026-05-03 21:13 | 47.16556 | 15.11669 | 33097 ft | 499 kts | 121° |
| 2026-05-03 21:13 | 47.12944 | 15.20311 | 33089 ft | 500 kts | 120° |
| 2026-05-03 21:14 | 47.09299 | 15.29008 | 33085 ft | 501 kts | 120° |
| 2026-05-03 21:14 | 47.05642 | 15.37706 | 33074 ft | 501 kts | 120° |
| 2026-05-03 21:15 | 47.01974 | 15.46400 | 33086 ft | 501 kts | 120° |
| 2026-05-03 21:15 | 46.98296 | 15.55091 | 33077 ft | 501 kts | 120° |
| 2026-05-03 21:16 | 46.94614 | 15.63763 | 33074 ft | 502 kts | 120° |
| 2026-05-03 21:16 | 46.90929 | 15.72415 | 33089 ft | 502 kts | 120° |
| 2026-05-03 21:17 | 46.89069 | 15.76775 | 33281 ft | 505 kts | 120° |
| 2026-05-03 21:17 | 46.87208 | 15.81127 | 33740 ft | 504 kts | 120° |
| 2026-05-03 21:17 | 46.85355 | 15.85454 | 34118 ft | 501 kts | 120° |
| 2026-05-03 21:17 | 46.83505 | 15.89764 | 34077 ft | 500 kts | 120° |
| 2026-05-03 21:18 | 46.79819 | 15.98338 | 34087 ft | 499 kts | 120° |
| 2026-05-03 21:18 | 46.76112 | 16.06937 | 34094 ft | 501 kts | 120° |
| 2026-05-03 21:19 | 46.72387 | 16.15549 | 34239 ft | 504 kts | 120° |
| 2026-05-03 21:19 | 46.70522 | 16.19849 | 34656 ft | 501 kts | 121° |
| 2026-05-03 21:19 | 46.68664 | 16.24128 | 35123 ft | 497 kts | 121° |
| 2026-05-03 21:20 | 46.66820 | 16.28365 | 35607 ft | 495 kts | 121° |
| 2026-05-03 21:20 | 46.64983 | 16.32581 | 35993 ft | 493 kts | 121° |
| 2026-05-03 21:20 | 46.63143 | 16.36799 | 36339 ft | 493 kts | 121° |
| 2026-05-03 21:20 | 46.61304 | 16.41009 | 36672 ft | 493 kts | 121° |
| 2026-05-03 21:21 | 46.59467 | 16.45206 | 36993 ft | 492 kts | 121° |
| 2026-05-03 21:21 | 46.57630 | 16.49400 | 37346 ft | 491 kts | 121° |
| 2026-05-03 21:21 | 46.55798 | 16.53573 | 37664 ft | 490 kts | 121° |
| 2026-05-03 21:21 | 46.53962 | 16.57751 | 37975 ft | 490 kts | 121° |
| 2026-05-03 21:22 | 46.50276 | 16.66117 | 38107 ft | 493 kts | 121° |
| 2026-05-03 21:22 | 46.46588 | 16.74462 | 38096 ft | 490 kts | 121° |
| 2026-05-03 21:23 | 46.42882 | 16.82825 | 38113 ft | 495 kts | 121° |
| 2026-05-03 21:23 | 46.39156 | 16.91209 | 38120 ft | 502 kts | 121° |
| 2026-05-03 21:24 | 46.35347 | 16.99751 | 38117 ft | 508 kts | 121° |
| 2026-05-03 21:24 | 46.31491 | 17.08371 | 38113 ft | 512 kts | 121° |
| 2026-05-03 21:25 | 46.27579 | 17.17090 | 38120 ft | 514 kts | 121° |
| 2026-05-03 21:25 | 46.23705 | 17.25697 | 38121 ft | 515 kts | 121° |
| 2026-05-03 21:26 | 46.19790 | 17.34366 | 38106 ft | 515 kts | 121° |
| 2026-05-03 21:26 | 46.15875 | 17.43009 | 38112 ft | 514 kts | 121° |
| 2026-05-03 21:27 | 46.11960 | 17.51627 | 38108 ft | 513 kts | 121° |
| 2026-05-03 21:27 | 46.08048 | 17.60213 | 38119 ft | 512 kts | 121° |
| 2026-05-03 21:28 | 46.04138 | 17.68768 | 38119 ft | 511 kts | 121° |
| 2026-05-03 21:28 | 46.00223 | 17.77309 | 38131 ft | 511 kts | 121° |
| 2026-05-03 21:29 | 45.96308 | 17.85822 | 38139 ft | 510 kts | 120° |
| 2026-05-03 21:29 | 45.92388 | 17.94320 | 38146 ft | 510 kts | 120° |
| 2026-05-03 21:30 | 45.88467 | 18.02798 | 38156 ft | 510 kts | 120° |
| 2026-05-03 21:30 | 45.84535 | 18.11270 | 38152 ft | 510 kts | 120° |
| 2026-05-03 21:31 | 45.80597 | 18.19733 | 38158 ft | 510 kts | 120° |
| 2026-05-03 21:31 | 45.76651 | 18.28185 | 38151 ft | 510 kts | 120° |
| 2026-05-03 21:32 | 45.72699 | 18.36625 | 38152 ft | 510 kts | 120° |
| 2026-05-03 21:32 | 45.68738 | 18.45059 | 38154 ft | 510 kts | 120° |
| 2026-05-03 21:33 | 45.64773 | 18.53478 | 38156 ft | 510 kts | 120° |
| 2026-05-03 21:33 | 45.60806 | 18.61875 | 38153 ft | 510 kts | 120° |
| 2026-05-03 21:34 | 45.56831 | 18.70263 | 38161 ft | 510 kts | 120° |
| 2026-05-03 21:34 | 45.52853 | 18.78634 | 38159 ft | 510 kts | 120° |
| 2026-05-03 21:35 | 45.48867 | 18.86997 | 38161 ft | 510 kts | 121° |
| 2026-05-03 21:35 | 45.44879 | 18.95340 | 38159 ft | 510 kts | 121° |
| 2026-05-03 21:36 | 45.40886 | 19.03670 | 38164 ft | 510 kts | 121° |
| 2026-05-03 21:36 | 45.36907 | 19.11945 | 38160 ft | 510 kts | 121° |
| 2026-05-03 21:37 | 45.32899 | 19.20255 | 38163 ft | 510 kts | 121° |
| 2026-05-03 21:37 | 45.28884 | 19.28556 | 38172 ft | 510 kts | 121° |
| 2026-05-03 21:38 | 45.24856 | 19.36861 | 38176 ft | 510 kts | 121° |
| 2026-05-03 21:38 | 45.20821 | 19.45154 | 38181 ft | 511 kts | 121° |
| 2026-05-03 21:39 | 45.16779 | 19.53439 | 38183 ft | 511 kts | 121° |
| 2026-05-03 21:39 | 45.12733 | 19.61708 | 38179 ft | 511 kts | 121° |
| 2026-05-03 21:40 | 45.08681 | 19.69965 | 38181 ft | 510 kts | 121° |
| 2026-05-03 21:40 | 45.04624 | 19.78209 | 38184 ft | 510 kts | 121° |
| 2026-05-03 21:41 | 45.00568 | 19.86426 | 38188 ft | 510 kts | 121° |
| 2026-05-03 21:41 | 44.96502 | 19.94639 | 38191 ft | 509 kts | 121° |
| 2026-05-03 21:42 | 44.92437 | 20.02828 | 38181 ft | 509 kts | 121° |
| 2026-05-03 21:42 | 44.88372 | 20.10995 | 38184 ft | 509 kts | 121° |
| 2026-05-03 21:43 | 44.84302 | 20.19147 | 38188 ft | 509 kts | 121° |
| 2026-05-03 21:43 | 44.80250 | 20.27240 | 38186 ft | 508 kts | 121° |
| 2026-05-03 21:44 | 44.76174 | 20.35359 | 38191 ft | 508 kts | 121° |
| 2026-05-03 21:44 | 44.72095 | 20.43462 | 38192 ft | 507 kts | 122° |
| 2026-05-03 21:45 | 44.68011 | 20.51549 | 38184 ft | 507 kts | 122° |
| 2026-05-03 21:45 | 44.63925 | 20.59620 | 38185 ft | 507 kts | 122° |
| 2026-05-03 21:46 | 44.59838 | 20.67669 | 38177 ft | 506 kts | 122° |
| 2026-05-03 21:46 | 44.55749 | 20.75701 | 38177 ft | 506 kts | 122° |
| 2026-05-03 21:47 | 44.51655 | 20.83719 | 38174 ft | 506 kts | 122° |
| 2026-05-03 21:47 | 44.47556 | 20.91727 | 38177 ft | 506 kts | 122° |
| 2026-05-03 21:48 | 44.43455 | 20.99715 | 38181 ft | 506 kts | 122° |
| 2026-05-03 21:48 | 44.39341 | 21.07706 | 38176 ft | 506 kts | 122° |
| 2026-05-03 21:49 | 44.35225 | 21.15678 | 38178 ft | 506 kts | 122° |
| 2026-05-03 21:49 | 44.31107 | 21.23633 | 38182 ft | 505 kts | 122° |
| 2026-05-03 21:50 | 44.26980 | 21.31583 | 38192 ft | 505 kts | 122° |
| 2026-05-03 21:50 | 44.22852 | 21.39514 | 38188 ft | 505 kts | 122° |
| 2026-05-03 21:51 | 44.18718 | 21.47437 | 38175 ft | 506 kts | 122° |
| 2026-05-03 21:51 | 44.14572 | 21.55358 | 38194 ft | 506 kts | 122° |
| 2026-05-03 21:52 | 44.10446 | 21.63221 | 38184 ft | 507 kts | 122° |
| 2026-05-03 21:52 | 44.06284 | 21.71133 | 38194 ft | 507 kts | 122° |
| 2026-05-03 21:53 | 44.02107 | 21.79048 | 38195 ft | 508 kts | 122° |
| 2026-05-03 21:53 | 43.97925 | 21.86953 | 38192 ft | 509 kts | 122° |
| 2026-05-03 21:54 | 43.93727 | 21.94867 | 38194 ft | 509 kts | 122° |
| 2026-05-03 21:54 | 43.89517 | 22.02781 | 38191 ft | 510 kts | 122° |
| 2026-05-03 21:55 | 43.85302 | 22.10683 | 38196 ft | 510 kts | 122° |
| 2026-05-03 21:55 | 43.81084 | 22.18571 | 38190 ft | 510 kts | 122° |
| 2026-05-03 21:56 | 43.76859 | 22.26451 | 38197 ft | 510 kts | 122° |
| 2026-05-03 21:56 | 43.72634 | 22.34315 | 38208 ft | 509 kts | 122° |
| 2026-05-03 21:57 | 43.68505 | 22.42244 | 38211 ft | 506 kts | 118° |
| 2026-05-03 21:57 | 43.65212 | 22.50738 | 38230 ft | 501 kts | 112° |
| 2026-05-03 21:58 | 43.62642 | 22.57888 | 38243 ft | 501 kts | 112° |
| 2026-05-03 21:58 | 43.59526 | 22.66487 | 38256 ft | 500 kts | 112° |
| 2026-05-03 21:59 | 43.56384 | 22.75037 | 38272 ft | 500 kts | 112° |
| 2026-05-03 21:59 | 43.53227 | 22.83561 | 38269 ft | 499 kts | 112° |
| 2026-05-03 22:00 | 43.50063 | 22.92073 | 38290 ft | 499 kts | 112° |
| 2026-05-03 22:00 | 43.46896 | 23.00576 | 38296 ft | 499 kts | 113° |
| 2026-05-03 22:01 | 43.43720 | 23.09075 | 38303 ft | 499 kts | 113° |
| 2026-05-03 22:01 | 43.40541 | 23.17558 | 38321 ft | 499 kts | 113° |
| 2026-05-03 22:02 | 43.37353 | 23.26046 | 38332 ft | 500 kts | 113° |
| 2026-05-03 22:02 | 43.34152 | 23.34539 | 38336 ft | 501 kts | 113° |
| 2026-05-03 22:03 | 43.30935 | 23.43048 | 38318 ft | 503 kts | 114° |
| 2026-05-03 22:03 | 43.27699 | 23.51580 | 38318 ft | 504 kts | 114° |
| 2026-05-03 22:04 | 43.24451 | 23.60120 | 38333 ft | 505 kts | 114° |
| 2026-05-03 22:04 | 43.21191 | 23.68663 | 38332 ft | 506 kts | 114° |
| 2026-05-03 22:05 | 43.17919 | 23.77212 | 38338 ft | 506 kts | 114° |
| 2026-05-03 22:05 | 43.14642 | 23.85747 | 38343 ft | 507 kts | 115° |
| 2026-05-03 22:06 | 43.11356 | 23.94284 | 38340 ft | 507 kts | 115° |
| 2026-05-03 22:06 | 43.08063 | 24.02811 | 38338 ft | 507 kts | 115° |
| 2026-05-03 22:07 | 43.04767 | 24.11320 | 38339 ft | 506 kts | 115° |
| 2026-05-03 22:07 | 43.01468 | 24.19812 | 38331 ft | 505 kts | 115° |
| 2026-05-03 22:08 | 42.98169 | 24.28279 | 38345 ft | 504 kts | 115° |
| 2026-05-03 22:08 | 42.94870 | 24.36725 | 38346 ft | 504 kts | 116° |
| 2026-05-03 22:09 | 42.91562 | 24.45167 | 38339 ft | 504 kts | 116° |
| 2026-05-03 22:10 | 42.86595 | 24.57802 | 38338 ft | 504 kts | 116° |
| 2026-05-03 22:10 | 42.83273 | 24.66215 | 38332 ft | 504 kts | 116° |
| 2026-05-03 22:11 | 42.79946 | 24.74619 | 38326 ft | 504 kts | 116° |
| 2026-05-03 22:11 | 42.76617 | 24.83010 | 38294 ft | 504 kts | 116° |
| 2026-05-03 22:12 | 42.73279 | 24.91400 | 38304 ft | 504 kts | 116° |
| 2026-05-03 22:12 | 42.69957 | 24.99728 | 38263 ft | 504 kts | 116° |
| 2026-05-03 22:13 | 42.66611 | 25.08092 | 38258 ft | 503 kts | 116° |
| 2026-05-03 22:13 | 42.63263 | 25.16436 | 38248 ft | 503 kts | 117° |
| 2026-05-03 22:14 | 42.59907 | 25.24774 | 38231 ft | 503 kts | 117° |
| 2026-05-03 22:14 | 42.56547 | 25.33101 | 38221 ft | 503 kts | 117° |
| 2026-05-03 22:15 | 42.53179 | 25.41420 | 38204 ft | 503 kts | 117° |
| 2026-05-03 22:15 | 42.49813 | 25.49715 | 38191 ft | 503 kts | 117° |
| 2026-05-03 22:16 | 42.46428 | 25.58030 | 38183 ft | 503 kts | 117° |
| 2026-05-03 22:16 | 42.43048 | 25.66311 | 38160 ft | 503 kts | 117° |
| 2026-05-03 22:17 | 42.39653 | 25.74602 | 38150 ft | 503 kts | 117° |
| 2026-05-03 22:17 | 42.36260 | 25.82870 | 38141 ft | 503 kts | 118° |
| 2026-05-03 22:18 | 42.32859 | 25.91132 | 38145 ft | 503 kts | 118° |
| 2026-05-03 22:18 | 42.29450 | 25.99390 | 38138 ft | 503 kts | 118° |
| 2026-05-03 22:19 | 42.26037 | 26.07639 | 38141 ft | 503 kts | 118° |
| 2026-05-03 22:19 | 42.22613 | 26.15882 | 38143 ft | 504 kts | 118° |
| 2026-05-03 22:20 | 42.19181 | 26.24114 | 38138 ft | 504 kts | 118° |
| 2026-05-03 22:20 | 42.15766 | 26.32289 | 38135 ft | 504 kts | 118° |
| 2026-05-03 22:21 | 42.12303 | 26.40559 | 38130 ft | 504 kts | 119° |
| 2026-05-03 22:21 | 42.08868 | 26.48737 | 37972 ft | 495 kts | 119° |
| 2026-05-03 22:21 | 42.07190 | 26.52726 | 37585 ft | 486 kts | 119° |
| 2026-05-03 22:22 | 42.05525 | 26.56678 | 36793 ft | 486 kts | 119° |
| 2026-05-03 22:22 | 42.03850 | 26.60648 | 35857 ft | 489 kts | 119° |
| 2026-05-03 22:22 | 42.02187 | 26.64585 | 35711 ft | 478 kts | 119° |
| 2026-05-03 22:23 | 41.98867 | 26.72432 | 35694 ft | 489 kts | 119° |
| 2026-05-03 22:23 | 41.95454 | 26.80359 | 35698 ft | 497 kts | 121° |
| 2026-05-03 22:24 | 41.91866 | 26.88228 | 35676 ft | 486 kts | 121° |
| 2026-05-03 22:24 | 41.90115 | 26.92082 | 35508 ft | 484 kts | 121° |
| 2026-05-03 22:24 | 41.88343 | 26.95991 | 34605 ft | 492 kts | 121° |
| 2026-05-03 22:24 | 41.86577 | 26.99879 | 34066 ft | 484 kts | 121° |
| 2026-05-03 22:25 | 41.84858 | 27.03658 | 33148 ft | 464 kts | 121° |
| 2026-05-03 22:25 | 41.83192 | 27.07316 | 31551 ft | 457 kts | 122° |
| 2026-05-03 22:25 | 41.81569 | 27.10874 | 30841 ft | 443 kts | 122° |
| 2026-05-03 22:25 | 41.79933 | 27.14364 | 30222 ft | 441 kts | 124° |
| 2026-05-03 22:26 | 41.78195 | 27.17764 | 29498 ft | 443 kts | 126° |
| 2026-05-03 22:26 | 41.76406 | 27.21152 | 28863 ft | 448 kts | 126° |
| 2026-05-03 22:26 | 41.74621 | 27.24561 | 28210 ft | 446 kts | 126° |
| 2026-05-03 22:26 | 41.72851 | 27.27948 | 27457 ft | 441 kts | 128° |
| 2026-05-03 22:27 | 41.70824 | 27.31037 | 26580 ft | 442 kts | 137° |
| 2026-05-03 22:27 | 41.68508 | 27.33713 | 25911 ft | 437 kts | 142° |
| 2026-05-03 22:27 | 41.66050 | 27.36046 | 25288 ft | 432 kts | 149° |
| 2026-05-03 22:27 | 41.63469 | 27.38073 | 24681 ft | 427 kts | 150° |
| 2026-05-03 22:28 | 41.60910 | 27.40053 | 24094 ft | 424 kts | 150° |
| 2026-05-03 22:28 | 41.58367 | 27.42020 | 23496 ft | 421 kts | 150° |
| 2026-05-03 22:28 | 41.55843 | 27.43978 | 22815 ft | 418 kts | 150° |
| 2026-05-03 22:28 | 41.53343 | 27.45924 | 22206 ft | 414 kts | 149° |
| 2026-05-03 22:29 | 41.50872 | 27.47852 | 21623 ft | 410 kts | 149° |
| 2026-05-03 22:29 | 41.48428 | 27.49759 | 21036 ft | 406 kts | 149° |
| 2026-05-03 22:29 | 41.45998 | 27.51659 | 20485 ft | 403 kts | 149° |
| 2026-05-03 22:29 | 41.43594 | 27.53538 | 19904 ft | 399 kts | 149° |
| 2026-05-03 22:30 | 41.41206 | 27.55403 | 19360 ft | 396 kts | 148° |
| 2026-05-03 22:30 | 41.38832 | 27.57254 | 18819 ft | 394 kts | 148° |
| 2026-05-03 22:30 | 41.36471 | 27.59091 | 18251 ft | 392 kts | 148° |
| 2026-05-03 22:30 | 41.34126 | 27.60915 | 17621 ft | 390 kts | 148° |
| 2026-05-03 22:31 | 41.31791 | 27.62732 | 17041 ft | 387 kts | 148° |
| 2026-05-03 22:31 | 41.29481 | 27.64529 | 16493 ft | 384 kts | 148° |
| 2026-05-03 22:31 | 41.27182 | 27.66314 | 15938 ft | 381 kts | 148° |
| 2026-05-03 22:31 | 41.24901 | 27.68084 | 15397 ft | 379 kts | 148° |
| 2026-05-03 22:32 | 41.22632 | 27.69842 | 14857 ft | 376 kts | 148° |
| 2026-05-03 22:32 | 41.20376 | 27.71590 | 14325 ft | 374 kts | 148° |
| 2026-05-03 22:32 | 41.18127 | 27.73331 | 13786 ft | 373 kts | 148° |
| 2026-05-03 22:32 | 41.15892 | 27.75058 | 13173 ft | 371 kts | 148° |
| 2026-05-03 22:33 | 41.13673 | 27.76773 | 12645 ft | 368 kts | 148° |
| 2026-05-03 22:33 | 41.11464 | 27.78479 | 12105 ft | 366 kts | 148° |
| 2026-05-03 22:33 | 41.09266 | 27.80175 | 11559 ft | 365 kts | 148° |
| 2026-05-03 22:33 | 41.07074 | 27.81865 | 10985 ft | 364 kts | 147° |
| 2026-05-03 22:34 | 41.04914 | 27.83527 | 10832 ft | 353 kts | 147° |
| 2026-05-03 22:34 | 41.02825 | 27.85134 | 10665 ft | 343 kts | 147° |
| 2026-05-03 22:34 | 41.00790 | 27.86700 | 10505 ft | 332 kts | 147° |
| 2026-05-03 22:34 | 40.98822 | 27.88214 | 10366 ft | 322 kts | 147° |
| 2026-05-03 22:35 | 40.96933 | 27.89663 | 10210 ft | 304 kts | 147° |
| 2026-05-03 22:35 | 40.95173 | 27.91014 | 10095 ft | 281 kts | 144° |
| 2026-05-03 22:35 | 40.93831 | 27.92692 | 9976 ft | 254 kts | 117° |
| 2026-05-03 22:35 | 40.93228 | 27.94777 | 9789 ft | 240 kts | 98° |
| 2026-05-03 22:36 | 40.93104 | 27.97018 | 9561 ft | 250 kts | 83° |
| 2026-05-03 22:36 | 40.93323 | 27.99268 | 9319 ft | 248 kts | 79° |
| 2026-05-03 22:36 | 40.93600 | 28.01554 | 9052 ft | 249 kts | 79° |
| 2026-05-03 22:36 | 40.93863 | 28.03818 | 8793 ft | 248 kts | 79° |
| 2026-05-03 22:37 | 40.94111 | 28.06040 | 8557 ft | 249 kts | 79° |
| 2026-05-03 22:37 | 40.94360 | 28.08314 | 8308 ft | 250 kts | 79° |
| 2026-05-03 22:37 | 40.94610 | 28.10623 | 8048 ft | 250 kts | 79° |
| 2026-05-03 22:37 | 40.94855 | 28.12901 | 7807 ft | 250 kts | 79° |
| 2026-05-03 22:38 | 40.95095 | 28.15150 | 7559 ft | 251 kts | 79° |
| 2026-05-03 22:38 | 40.95341 | 28.17463 | 7305 ft | 251 kts | 79° |
| 2026-05-03 22:38 | 40.95582 | 28.19739 | 7055 ft | 248 kts | 79° |
| 2026-05-03 22:38 | 40.95816 | 28.21961 | 6810 ft | 245 kts | 79° |
| 2026-05-03 22:39 | 40.96052 | 28.24206 | 6560 ft | 242 kts | 79° |
| 2026-05-03 22:39 | 40.96279 | 28.26363 | 6318 ft | 238 kts | 78° |
| 2026-05-03 22:39 | 40.96506 | 28.28524 | 6076 ft | 236 kts | 78° |
| 2026-05-03 22:39 | 40.96731 | 28.30658 | 5822 ft | 233 kts | 78° |
| 2026-05-03 22:40 | 40.96956 | 28.32805 | 5587 ft | 232 kts | 78° |
| 2026-05-03 22:40 | 40.97171 | 28.34867 | 5393 ft | 228 kts | 78° |
| 2026-05-03 22:40 | 40.97384 | 28.36921 | 5153 ft | 223 kts | 78° |
| 2026-05-03 22:40 | 40.97584 | 28.38938 | 4926 ft | 219 kts | 81° |
| 2026-05-03 22:41 | 40.97615 | 28.40943 | 4718 ft | 215 kts | 86° |
| 2026-05-03 22:41 | 40.97594 | 28.42892 | 4530 ft | 209 kts | 86° |
| 2026-05-03 22:41 | 40.97578 | 28.44797 | 4351 ft | 205 kts | 85° |
| 2026-05-03 22:41 | 40.97568 | 28.46678 | 4175 ft | 204 kts | 85° |
| 2026-05-03 22:42 | 40.97562 | 28.48550 | 4004 ft | 203 kts | 85° |
| 2026-05-03 22:42 | 40.97434 | 28.50408 | 3813 ft | 205 kts | 95° |
| 2026-05-03 22:42 | 40.97131 | 28.52249 | 3638 ft | 204 kts | 96° |
| 2026-05-03 22:42 | 40.96820 | 28.54080 | 3463 ft | 204 kts | 96° |
| 2026-05-03 22:43 | 40.96613 | 28.55321 | 3344 ft | 204 kts | 95° |
| 2026-05-03 22:43 | 40.96215 | 28.57758 | 3099 ft | 205 kts | 95° |
| 2026-05-03 22:43 | 40.96016 | 28.58974 | 3044 ft | 203 kts | 95° |
| 2026-05-03 22:43 | 40.95877 | 28.60776 | 2967 ft | 195 kts | 83° |
| 2026-05-03 22:44 | 40.95913 | 28.62574 | 2960 ft | 197 kts | 82° |
| 2026-05-03 22:44 | 40.95953 | 28.64389 | 3006 ft | 197 kts | 83° |
| 2026-05-03 22:44 | 40.95990 | 28.66212 | 2957 ft | 197 kts | 81° |
| 2026-05-03 22:44 | 40.96381 | 28.67833 | 2939 ft | 174 kts | 54° |
| 2026-05-03 22:45 | 40.97124 | 28.68963 | 2922 ft | 157 kts | 36° |
| 2026-05-03 22:45 | 40.98033 | 28.69657 | 2941 ft | 150 kts | 31° |
| 2026-05-03 22:45 | 40.98933 | 28.70323 | 2923 ft | 146 kts | 31° |
| 2026-05-03 22:45 | 40.99837 | 28.70993 | 2945 ft | 152 kts | 25° |
| 2026-05-03 22:46 | 41.00913 | 28.71167 | 2967 ft | 161 kts | 4° |
| 2026-05-03 22:46 | 41.02026 | 28.71159 | 2941 ft | 156 kts | 6° |
| 2026-05-03 22:46 | 41.03079 | 28.71170 | 2930 ft | 148 kts | 6° |
| 2026-05-03 22:46 | 41.04088 | 28.71167 | 2928 ft | 143 kts | 6° |
| 2026-05-03 22:47 | 41.05084 | 28.71156 | 2940 ft | 144 kts | 6° |
| 2026-05-03 22:47 | 41.06104 | 28.71141 | 2954 ft | 148 kts | 5° |
| 2026-05-03 22:47 | 41.07143 | 28.71123 | 2954 ft | 150 kts | 5° |
| 2026-05-03 22:47 | 41.08185 | 28.71102 | 2938 ft | 149 kts | 5° |
| 2026-05-03 22:48 | 41.09222 | 28.71081 | 2952 ft | 150 kts | 5° |
| 2026-05-03 22:48 | 41.10266 | 28.71063 | 2974 ft | 148 kts | 5° |
| 2026-05-03 22:48 | 41.11303 | 28.71041 | 2947 ft | 149 kts | 5° |
| 2026-05-03 22:48 | 41.12321 | 28.71019 | 2952 ft | 144 kts | 5° |
| 2026-05-03 22:49 | 41.13326 | 28.71000 | 2961 ft | 148 kts | 5° |
| 2026-05-03 22:49 | 41.14386 | 28.70980 | 2726 ft | 151 kts | 5° |
| 2026-05-03 22:49 | 41.15416 | 28.70959 | 2522 ft | 145 kts | 5° |
| 2026-05-03 22:49 | 41.16413 | 28.70945 | 2338 ft | 143 kts | 6° |
| 2026-05-03 22:50 | 41.17419 | 28.70929 | 2128 ft | 145 kts | 4° |
| 2026-05-03 22:50 | 41.18428 | 28.70901 | 1921 ft | 146 kts | 5° |
| 2026-05-03 22:50 | 41.19430 | 28.70880 | 1711 ft | 143 kts | 5° |
| 2026-05-03 22:50 | 41.20427 | 28.70859 | 1517 ft | 143 kts | 5° |
| 2026-05-03 22:51 | 41.21440 | 28.70842 | 1324 ft | 148 kts | 5° |
| 2026-05-03 22:51 | 41.22485 | 28.70822 | 1129 ft | 151 kts | 4° |
| 2026-05-03 22:51 | 41.23524 | 28.70800 | 977 ft | 149 kts | 3° |
| 2026-05-03 22:51 | 41.24554 | 28.70788 | 792 ft | 147 kts | 2° |
| 2026-05-03 22:52 | 41.25555 | 28.70761 | 590 ft | 142 kts | 1° |
| 2026-05-03 22:52 | 41.26535 | 28.70746 | 372 ft | 140 kts | 1° |
| 2026-05-03 22:52 | 41.27440 | 28.70727 | 336 ft | 114 kts | 360° |
| 2026-05-03 22:52 | 41.28050 | 28.70712 | 335 ft | 61 kts | 359° |
| 2026-05-03 22:53 | 41.28331 | 28.70774 | 335 ft | 25 kts | 27° |
| 2026-05-03 22:53 | 41.28464 | 28.70877 | 335 ft | 22 kts | 41° |
| 2026-05-03 22:53 | 41.28504 | 28.71041 | 336 ft | 19 kts | 88° |
| 2026-05-03 22:53 | 41.28442 | 28.71170 | 335 ft | 19 kts | 171° |
| 2026-05-03 22:54 | 41.28310 | 28.71174 | 336 ft | 19 kts | 179° |
| 2026-05-03 22:54 | 41.28177 | 28.71177 | 338 ft | 19 kts | 179° |
| 2026-05-03 22:54 | 41.28046 | 28.71180 | 334 ft | 19 kts | 179° |
| 2026-05-03 22:54 | 41.27913 | 28.71181 | 334 ft | 19 kts | 179° |
| 2026-05-03 22:55 | 41.27781 | 28.71187 | 335 ft | 19 kts | 179° |
| 2026-05-03 22:55 | 41.27648 | 28.71189 | 336 ft | 19 kts | 179° |
| 2026-05-03 22:55 | 41.27515 | 28.71193 | 336 ft | 19 kts | 180° |
| 2026-05-03 22:55 | 41.27383 | 28.71195 | 334 ft | 19 kts | 179° |
| 2026-05-03 22:56 | 41.27250 | 28.71197 | 335 ft | 19 kts | 179° |
| 2026-05-03 22:56 | 41.27118 | 28.71200 | 335 ft | 19 kts | 179° |
| 2026-05-03 22:56 | 41.26985 | 28.71203 | 337 ft | 19 kts | 178° |
| 2026-05-03 22:56 | 41.26854 | 28.71208 | 337 ft | 14 kts | 179° |
| 2026-05-03 22:57 | 41.26785 | 28.71276 | 333 ft | 13 kts | 95° |
| 2026-05-03 22:57 | 41.26783 | 28.71398 | 335 ft | 13 kts | 90° |
| 2026-05-03 22:57 | 41.26784 | 28.71519 | 335 ft | 13 kts | 88° |
| 2026-05-03 22:57 | 41.26787 | 28.71666 | 339 ft | 24 kts | 89° |
| 2026-05-03 22:58 | 41.26790 | 28.71875 | 339 ft | 22 kts | 89° |
| 2026-05-03 22:58 | 41.26793 | 28.72080 | 336 ft | 20 kts | 89° |
| 2026-05-03 22:58 | 41.26792 | 28.72231 | 336 ft | 15 kts | 102° |
| 2026-05-03 22:58 | 41.26727 | 28.72315 | 335 ft | 13 kts | 121° |
| 2026-05-03 22:59 | 41.26711 | 28.72436 | 335 ft | 13 kts | 92° |
| 2026-05-03 22:59 | 41.26711 | 28.72560 | 335 ft | 13 kts | 87° |
| 2026-05-03 22:59 | 41.26714 | 28.72685 | 335 ft | 13 kts | 90° |
| 2026-05-03 22:59 | 41.26714 | 28.72809 | 339 ft | 13 kts | 90° |
| 2026-05-03 23:00 | 41.26716 | 28.72934 | 339 ft | 13 kts | 89° |
| 2026-05-03 23:00 | 41.26718 | 28.73058 | 339 ft | 13 kts | 89° |
| 2026-05-03 23:00 | 41.26719 | 28.73182 | 339 ft | 13 kts | 88° |
| 2026-05-03 23:00 | 41.26724 | 28.73303 | 339 ft | 10 kts | 75° |
| 2026-05-03 23:01 | 41.26779 | 28.73335 | 334 ft | 10 kts | 352° |
| 2026-05-03 23:01 | 41.26848 | 28.73330 | 334 ft | 10 kts | 357° |
| 2026-05-03 23:01 | 41.26917 | 28.73328 | 336 ft | 10 kts | 359° |
| 2026-05-03 23:01 | 41.26986 | 28.73326 | 335 ft | 10 kts | 359° |
| 2026-05-03 23:02 | 41.27038 | 28.73370 | 335 ft | 10 kts | 73° |
| 2026-05-03 23:02 | 41.27045 | 28.73462 | 337 ft | 10 kts | 89° |
| 2026-05-03 23:02 | 41.27046 | 28.73557 | 335 ft | 10 kts | 89° |
| 2026-05-03 23:02 | 41.27047 | 28.73655 | 335 ft | 14 kts | 89° |
| 2026-05-03 23:03 | 41.27051 | 28.73909 | 339 ft | 24 kts | 89° |
| 2026-05-03 23:03 | 41.27054 | 28.74053 | 336 ft | 15 kts | 88° |
| 2026-05-03 23:03 | 41.27056 | 28.74196 | 336 ft | 15 kts | 89° |
| 2026-05-03 23:03 | 41.27057 | 28.74340 | 335 ft | 15 kts | 89° |
| 2026-05-03 23:04 | 41.27039 | 28.74444 | 334 ft | 10 kts | 140° |
| 2026-05-03 23:04 | 41.26971 | 28.74461 | 334 ft | 10 kts | 178° |
| 2026-05-03 23:04 | 41.26898 | 28.74465 | 334 ft | 11 kts | 178° |
| 2026-05-03 23:04 | 41.26820 | 28.74467 | 334 ft | 12 kts | 179° |
| 2026-05-03 23:05 | 41.26749 | 28.74450 | 334 ft | 10 kts | 219° |
| 2026-05-03 23:05 | 41.26734 | 28.74405 | 334 ft | 4 kts | 273° |
| 2026-05-03 23:05 | 41.26737 | 28.74367 | 337 ft | 0 kts | 273° |